»·PEaware :: UAL576 KLAS-KSBP

UAL576 :: KLAS-KSBP

FLIGHT INFORMATION

Flight Status: Arrived
Operator:
United Airlines
More flights by this operator :: More flights under this callsign
Pilot: Anonymous 8274 (8274)
Aircraft: BOEING 737-300
(B733)
More flights by this aircraft type
Origin: KLAS McCarran Intl
United States
Destination: KSBP San Luis Co Regl
United States
More flights between these airports :: More routes between these airports
Route: +BOACH8 HEC J6 PMD RZS V12 GVO MQO
File this flight plan on PilotEdge
Remarks:
Altitude:
(Current/Filed)
26,000ft
Speed:
(Current/Filed)
440kts
Departed: 01-Dec-17 09:55 PM
Arrived: 01-Dec-17 11:04 PM
Distance/Time
Traveled:
273nm/1:09
Distance/Time
To Go:
Arrived

Flight Plot

Page will automatically refresh every two minutes.

Flight plan parsing failed; only flown route is shown


Map Options




Map Legend


Flown Route
Filed Route
Departure Airport
Arrival Airport
Navaid (VOR, NDB)
Fix

Horizontal Profiles

Position Reports

Time Latitude Longitude Heading Altitude Ground
Speed
01-Dec-17 21:39 36.081156 -115.147872 65 2118ft 0kts
01-Dec-17 21:40 36.081156 -115.147872 65 2118ft 0kts
01-Dec-17 21:41 36.081156 -115.147872 65 2118ft 0kts
01-Dec-17 21:42 36.081156 -115.147872 65 2118ft 0kts
01-Dec-17 21:43 36.081156 -115.147872 65 2118ft 0kts
01-Dec-17 21:44 36.081156 -115.147872 65 2118ft 0kts
01-Dec-17 21:45 36.081156 -115.147872 65 2118ft 0kts
01-Dec-17 21:46 36.081156 -115.147872 65 2118ft 0kts
01-Dec-17 21:47 36.081156 -115.147872 65 2118ft 0kts
01-Dec-17 21:48 36.081156 -115.147872 65 2118ft 0kts
01-Dec-17 21:49 36.081156 -115.147872 65 2118ft 0kts
01-Dec-17 21:50 36.081156 -115.147872 65 2118ft 0kts
01-Dec-17 21:51 36.081156 -115.147873 65 2118ft 0kts
01-Dec-17 21:52 36.081156 -115.147872 65 2118ft 0kts
01-Dec-17 21:53 36.081156 -115.147872 65 2118ft 0kts
01-Dec-17 21:54 36.081079 -115.149480 123 2118ft 1kts
01-Dec-17 21:55 36.081064 -115.149451 123 2118ft 0kts
01-Dec-17 21:56 36.081064 -115.149451 123 2118ft 0kts
01-Dec-17 21:57 36.079465 -115.147688 143 2118ft 14kts
01-Dec-17 21:58 36.079234 -115.147513 154 2118ft 1kts
01-Dec-17 21:59 36.078234 -115.141884 90 2118ft 32kts
01-Dec-17 22:00 36.078244 -115.128979 90 2118ft 43kts
01-Dec-17 22:01 36.077399 -115.121478 140 2118ft 0kts
01-Dec-17 22:02 36.077399 -115.121478 140 2118ft 0kts
01-Dec-17 22:03 36.077399 -115.121478 140 2118ft 0kts
01-Dec-17 22:04 36.077399 -115.121478 140 2118ft 0kts
01-Dec-17 22:05 36.077399 -115.121478 140 2118ft 0kts
01-Dec-17 22:06 36.076401 -115.121946 271 2118ft 1kts
01-Dec-17 22:07 36.076387 -115.139756 270 2119ft 147kts
01-Dec-17 22:08 36.076063 -115.196888 270 3600ft 197kts
01-Dec-17 22:09 36.054844 -115.264765 199 5126ft 269kts
01-Dec-17 22:10 35.982895 -115.296436 201 7960ft 282kts
01-Dec-17 22:11 35.905028 -115.309554 185 10717ft 290kts
01-Dec-17 22:12 35.815826 -115.307770 166 12065ft 345kts
01-Dec-17 22:13 35.733660 -115.252207 145 13868ft 382kts
01-Dec-17 22:14 35.638268 -115.263931 227 15721ft 383kts
01-Dec-17 22:15 35.565558 -115.360718 238 17819ft 390kts
01-Dec-17 22:16 35.497712 -115.466607 234 19822ft 402kts
01-Dec-17 22:17 35.424844 -115.571994 233 21677ft 410kts
01-Dec-17 22:18 35.364415 -115.658891 233 23038ft 418kts
01-Dec-17 22:19 35.288706 -115.767630 233 24635ft 425kts
01-Dec-17 22:20 35.211471 -115.878229 232 25964ft 435kts
01-Dec-17 22:21 35.131910 -115.991324 232 26131ft 439kts
01-Dec-17 22:22 35.052819 -116.103615 232 26102ft 437kts
01-Dec-17 22:23 34.973395 -116.216014 232 26102ft 438kts
01-Dec-17 22:24 34.898420 -116.321782 232 26103ft 438kts
01-Dec-17 22:25 34.828969 -116.418428 232 26104ft 439kts
01-Dec-17 22:26 34.785750 -116.546938 270 26075ft 425kts
01-Dec-17 22:27 34.776287 -116.674743 265 26045ft 426kts
01-Dec-17 22:28 34.763538 -116.805386 265 26077ft 426kts
01-Dec-17 22:29 34.749302 -116.948382 265 26062ft 424kts
01-Dec-17 22:30 34.735041 -117.090027 265 26078ft 427kts
01-Dec-17 22:31 34.720469 -117.232988 265 26078ft 428kts
01-Dec-17 22:32 34.705695 -117.376219 265 26104ft 429kts
01-Dec-17 22:33 34.690187 -117.519376 265 26103ft 430kts
01-Dec-17 22:34 34.675508 -117.658281 264 26076ft 430kts
01-Dec-17 22:35 34.662295 -117.782322 264 26076ft 430kts
01-Dec-17 22:36 34.646863 -117.924286 264 26076ft 430kts
01-Dec-17 22:37 34.631456 -118.065248 266 26096ft 435kts
01-Dec-17 22:38 34.622174 -118.205553 267 26099ft 429kts
01-Dec-17 22:39 34.612730 -118.349466 267 26103ft 429kts
01-Dec-17 22:40 34.603183 -118.492827 267 26103ft 428kts
01-Dec-17 22:41 34.593611 -118.634080 267 26108ft 429kts
01-Dec-17 22:42 34.584963 -118.759782 267 26161ft 431kts
01-Dec-17 22:43 34.574906 -118.903468 267 26156ft 429kts
01-Dec-17 22:44 34.564893 -119.044184 267 26156ft 428kts
01-Dec-17 22:45 34.554514 -119.187668 267 26156ft 427kts
01-Dec-17 22:46 34.544074 -119.329499 267 26046ft 423kts
01-Dec-17 22:47 34.533526 -119.470674 267 26050ft 422kts
01-Dec-17 22:48 34.522797 -119.612264 267 26048ft 421kts
01-Dec-17 22:49 34.512152 -119.750366 267 26050ft 420kts
01-Dec-17 22:50 34.517709 -119.890009 276 26049ft 417kts
01-Dec-17 22:51 34.527275 -120.028618 276 26048ft 415kts
01-Dec-17 22:52 34.583249 -120.139823 322 24294ft 401kts
01-Dec-17 22:53 34.666799 -120.215488 321 22206ft 351kts
01-Dec-17 22:54 34.738826 -120.281750 321 20451ft 309kts
01-Dec-17 22:55 34.803523 -120.341446 322 18821ft 283kts
01-Dec-17 22:56 34.865836 -120.399071 322 17322ft 280kts
01-Dec-17 22:57 34.926921 -120.455654 322 15704ft 279kts
01-Dec-17 22:58 34.987847 -120.512194 322 13564ft 275kts
01-Dec-17 22:59 35.048720 -120.568800 321 11099ft 279kts
01-Dec-17 23:00 35.108139 -120.624175 320 9441ft 271kts
01-Dec-17 23:01 35.166102 -120.678376 321 7295ft 273kts
01-Dec-17 23:02 35.222218 -120.733099 313 5221ft 273kts
01-Dec-17 23:03 35.273901 -120.800583 312 3222ft 265kts
01-Dec-17 23:04 35.328741 -120.818848 54 2996ft 193kts
01-Dec-17 23:05 35.315194 -120.766102 123 3009ft 173kts
01-Dec-17 23:06 35.286226 -120.723203 134 1905ft 156kts
01-Dec-17 23:07 35.260758 -120.682138 124 1003ft 149kts
01-Dec-17 23:08 35.237459 -120.641027 123 188ft 135kts
01-Dec-17 23:09 35.233705 -120.632482 309 188ft 17kts
01-Dec-17 23:10 35.236827 -120.637947 304 188ft 22kts
01-Dec-17 23:11 35.239185 -120.641725 3 188ft 0kts
01-Dec-17 23:12 35.239205 -120.641723 3 188ft 0kts
01-Dec-17 23:13 35.252478 -120.667479 124 742ft 147kts
01-Dec-17 23:14 35.233627 -120.634227 121 188ft 10kts
01-Dec-17 23:15 35.246729 -120.657339 123 495ft 148kts
01-Dec-17 23:16 35.236327 -120.639020 124 188ft 125kts
01-Dec-17 23:17 35.233578 -120.634136 123 188ft 8kts
01-Dec-17 23:18 35.234821 -120.634433 305 188ft 18kts
01-Dec-17 23:19 35.236808 -120.637914 304 188ft 21kts
01-Dec-17 23:20 35.255928 -120.673621 123 845ft 149kts
01-Dec-17 23:21 35.238815 -120.643417 123 192ft 141kts
01-Dec-17 23:22 35.244357 -120.653113 123 378ft 148kts
01-Dec-17 23:23 35.254019 -120.670209 123 784ft 148kts
01-Dec-17 23:24 35.247439 -120.658599 124 527ft 148kts

Navigation Log

Ident Type
Flight plan parsing failed, navigation log unavailable